Terminal Aerodrome Forecast
Issued by NWS Omaha/Valley, NE

Home | Current Version | Previous Version | Text Only | Print | Product List | Glossary Off
Versions: 1 2 3 4 5 6 7 8 9 10 11 12 13 14 15 16 17

000
FTUS43 KOAX 210520
TAFOFK
TAF
KOFK 210520Z 2106/2206 12006KT P6SM SKC
     FM211600 18012KT P6SM SCT250
     FM212100 19012KT P6SM VCSH SCT150
     FM220000 23008KT P6SM SCT250=

USA.gov is the U.S. government's official web portal to all federal, state and local government web resources and services.